Time;durP1;ratioP1;P1;durP2;ratioP2;P2;SDS_P1;SDS_P2;PMS_P1;PMS_P2;Temp;Humidity;BMP_temperature;BMP_pressure;BME280_temperature;BME280_humidity;BME280_pressure;Samples;Min_cycle;Max_cycle;Signal;HPM_P1;HPM_P2
2023/09/15 00:00:47;;;;;;;7.38;3.13;;;14.30;99.90;;;;;;5011734;28;20484;-66
2023/09/15 00:03:13;;;;;;;8.00;3.42;;;14.30;99.90;;;;;;4995330;28;20103;-65
2023/09/15 00:05:39;;;;;;;5.28;3.00;;;14.30;99.90;;;;;;5011384;28;20049;-65
2023/09/15 00:08:05;;;;;;;9.65;3.80;;;14.30;99.90;;;;;;5010804;28;20450;-66
2023/09/15 00:10:33;;;;;;;6.38;3.33;;;14.20;99.90;;;;;;5011167;28;20050;-65
2023/09/15 00:12:59;;;;;;;9.23;3.42;;;14.20;99.90;;;;;;5010624;28;20041;-65
2023/09/15 00:15:25;;;;;;;9.02;3.45;;;14.10;99.90;;;;;;5012567;28;20484;-65
2023/09/15 00:17:51;;;;;;;7.07;3.20;;;14.10;99.90;;;;;;5043022;28;20412;-68
2023/09/15 00:20:17;;;;;;;10.98;3.22;;;14.10;99.90;;;;;;5011379;28;20045;-65
2023/09/15 00:22:49;;;;;;;6.80;3.63;;;14.10;99.90;;;;;;5011087;28;20480;-65
2023/09/15 00:25:18;;;;;;;13.13;3.47;;;14.00;99.90;;;;;;5010718;28;20506;-65
2023/09/15 00:27:45;;;;;;;12.43;4.50;;;14.00;99.90;;;;;;5011434;28;20603;-67
2023/09/15 00:30:13;;;;;;;9.48;3.42;;;14.00;99.90;;;;;;5011053;28;20049;-65
2023/09/15 00:32:39;;;;;;;9.27;3.58;;;14.00;99.90;;;;;;5012103;28;20057;-65
2023/09/15 00:35:05;;;;;;;8.57;3.40;;;14.00;99.90;;;;;;4994432;28;20606;-66
2023/09/15 00:37:31;;;;;;;9.38;3.33;;;13.90;99.90;;;;;;5011716;28;20042;-66
2023/09/15 00:39:57;;;;;;;8.57;3.58;;;13.90;99.90;;;;;;5010022;28;20048;-65
2023/09/15 00:42:24;;;;;;;8.57;3.28;;;13.90;99.90;;;;;;5011244;28;20548;-65
2023/09/15 00:44:51;;;;;;;7.22;3.13;;;13.80;99.90;;;;;;5010200;28;20050;-65
2023/09/15 00:47:17;;;;;;;9.95;3.28;;;13.80;99.90;;;;;;5010117;28;20430;-65
2023/09/15 00:49:45;;;;;;;8.05;3.08;;;13.80;99.90;;;;;;5010530;28;20391;-65
2023/09/15 00:52:11;;;;;;;9.25;3.30;;;13.70;99.90;;;;;;5010234;28;20042;-66
2023/09/15 00:54:39;;;;;;;7.20;3.10;;;13.70;99.90;;;;;;5011009;28;20136;-65
2023/09/15 00:57:05;;;;;;;10.15;3.10;;;13.60;99.90;;;;;;5010252;28;20388;-66
2023/09/15 00:59:32;;;;;;;9.20;3.40;;;13.60;99.90;;;;;;5011179;28;20085;-66
2023/09/15 01:02:00;;;;;;;7.85;2.75;;;13.60;99.90;;;;;;5010984;28;20042;-66
2023/09/15 01:04:27;;;;;;;7.00;2.95;;;13.50;99.90;;;;;;5010888;28;20046;-66
2023/09/15 01:06:55;;;;;;;4.22;2.80;;;13.50;99.90;;;;;;5011373;28;20053;-69
2023/09/15 01:09:22;;;;;;;7.40;3.15;;;13.50;99.90;;;;;;5011182;28;20096;-66
2023/09/15 01:11:50;;;;;;;8.30;3.20;;;13.40;99.90;;;;;;5008783;28;20050;-67
2023/09/15 01:14:16;;;;;;;8.98;3.20;;;13.40;99.90;;;;;;5010960;28;20450;-67
2023/09/15 01:17:04;;;;;;;6.20;3.38;;;13.40;99.90;;;;;;5014017;28;20078;-65
2023/09/15 01:19:50;;;;;;;8.63;3.28;;;13.40;99.90;;;;;;5014382;28;20050;-66
2023/09/15 01:22:35;;;;;;;14.32;3.15;;;13.40;99.90;;;;;;5014021;28;20129;-66
2023/09/15 01:25:20;;;;;;;;;;;13.40;99.90;;;;;;5012788;28;20492;-66
2023/09/15 01:28:00;;;;;;;7.22;3.28;;;13.40;99.90;;;;;;5047026;28;20040;-66
2023/09/15 01:30:29;;;;;;;8.25;3.40;;;13.30;99.90;;;;;;5042238;28;20049;-65
2023/09/15 01:32:57;;;;;;;6.38;3.20;;;13.30;99.90;;;;;;5015107;28;20054;-68
2023/09/15 01:35:24;;;;;;;8.52;3.28;;;13.30;99.90;;;;;;5001557;28;20049;-65
2023/09/15 01:37:49;;;;;;;5.97;3.22;;;13.30;99.90;;;;;;5015407;28;20117;-65
2023/09/15 01:40:15;;;;;;;7.18;2.97;;;13.20;99.90;;;;;;5012377;28;20212;-65
2023/09/15 01:42:43;;;;;;;11.57;3.20;;;13.20;99.90;;;;;;5015063;28;20053;-65
2023/09/15 01:45:09;;;;;;;5.32;3.20;;;13.10;99.90;;;;;;5012878;28;20052;-65
2023/09/15 01:47:37;;;;;;;7.00;3.45;;;13.10;99.90;;;;;;5015106;28;20124;-66
2023/09/15 01:50:04;;;;;;;6.13;3.22;;;13.10;99.90;;;;;;4996504;28;20052;-67
2023/09/15 01:52:30;;;;;;;7.07;3.45;;;13.10;99.90;;;;;;5013557;28;20407;-65
2023/09/15 01:54:57;;;;;;;10.32;3.42;;;13.00;99.90;;;;;;5014946;28;20042;-66
2023/09/15 01:57:22;;;;;;;9.07;3.58;;;13.00;99.90;;;;;;5014336;28;20121;-66
2023/09/15 01:59:49;;;;;;;6.88;3.38;;;12.90;99.90;;;;;;5014686;28;20141;-66
2023/09/15 02:02:14;;;;;;;8.45;3.22;;;12.90;99.90;;;;;;5013078;28;20050;-66
2023/09/15 02:04:41;;;;;;;7.07;3.00;;;12.90;99.90;;;;;;5014618;28;20056;-65
2023/09/15 02:07:07;;;;;;;12.77;3.30;;;12.90;99.90;;;;;;5013230;28;20041;-66
2023/09/15 02:09:33;;;;;;;8.90;3.28;;;12.80;99.90;;;;;;5013578;28;20411;-66
2023/09/15 02:11:59;;;;;;;6.88;3.35;;;12.80;99.90;;;;;;5012510;28;20049;-66
2023/09/15 02:14:25;;;;;;;6.60;3.08;;;12.80;99.90;;;;;;5012773;28;20050;-66
2023/09/15 02:16:51;;;;;;;6.38;3.33;;;12.80;99.90;;;;;;5013199;28;20046;-66
2023/09/15 02:19:18;;;;;;;9.63;3.42;;;12.70;99.90;;;;;;5013923;28;20052;-66
2023/09/15 02:21:44;;;;;;;7.78;3.53;;;12.70;99.90;;;;;;4996428;28;20050;-66
2023/09/15 02:24:10;;;;;;;8.63;3.65;;;12.70;99.90;;;;;;4996488;28;20054;-68
2023/09/15 02:26:36;;;;;;;5.43;3.10;;;12.80;99.90;;;;;;5000724;28;20132;-66
2023/09/15 02:29:02;;;;;;;7.60;3.22;;;12.80;99.90;;;;;;5012725;28;20439;-66
2023/09/15 02:31:30;;;;;;;8.75;3.17;;;12.80;99.90;;;;;;5013451;28;20052;-67
2023/09/15 02:33:59;;;;;;;6.95;2.90;;;12.80;99.90;;;;;;5013844;28;20046;-65
2023/09/15 02:36:28;;;;;;;7.97;3.30;;;12.80;99.90;;;;;;5044485;28;20532;-65
2023/09/15 02:38:54;;;;;;;11.30;3.42;;;12.80;99.90;;;;;;5014112;28;20049;-66
2023/09/15 02:41:20;;;;;;;11.52;3.45;;;12.70;99.90;;;;;;5013484;28;20107;-65
2023/09/15 02:43:47;;;;;;;7.05;3.40;;;12.70;99.90;;;;;;5029130;28;20057;-65
2023/09/15 02:46:12;;;;;;;7.65;3.10;;;12.70;99.90;;;;;;5012217;28;20038;-66
2023/09/15 02:48:38;;;;;;;5.57;3.00;;;12.70;99.90;;;;;;5013847;28;20049;-65
2023/09/15 02:51:04;;;;;;;8.15;3.13;;;12.70;99.90;;;;;;5013895;28;20080;-65
2023/09/15 02:53:30;;;;;;;7.72;3.20;;;12.60;99.90;;;;;;4995425;28;20139;-67
2023/09/15 02:56:02;;;;;;;8.45;3.17;;;12.60;99.90;;;;;;5045536;28;20045;-65
2023/09/15 02:58:28;;;;;;;8.25;3.38;;;12.60;99.90;;;;;;5011527;28;20125;-66
2023/09/15 03:00:54;;;;;;;8.75;3.75;;;12.60;99.90;;;;;;5012469;28;20136;-65
2023/09/15 03:03:24;;;;;;;8.25;3.50;;;12.60;99.90;;;;;;5011582;28;20041;-66
2023/09/15 03:05:51;;;;;;;7.57;3.35;;;12.50;99.90;;;;;;4996103;28;20042;-65
2023/09/15 03:08:17;;;;;;;6.28;2.85;;;12.50;99.90;;;;;;5011856;28;20119;-65
2023/09/15 03:10:43;;;;;;;8.00;3.90;;;12.50;99.90;;;;;;5013055;28;20045;-65
2023/09/15 03:13:08;;;;;;;8.02;3.75;;;12.50;99.90;;;;;;5045086;28;20057;-65
2023/09/15 03:15:39;;;;;;;8.68;3.40;;;12.40;99.90;;;;;;4995005;28;20056;-66
2023/09/15 03:18:05;;;;;;;6.32;3.67;;;12.40;99.90;;;;;;5013531;28;20038;-65
2023/09/15 03:20:30;;;;;;;6.50;3.50;;;12.40;99.90;;;;;;5011593;28;20050;-66
2023/09/15 03:22:56;;;;;;;6.70;3.50;;;12.40;99.90;;;;;;5012957;28;20065;-66
2023/09/15 03:25:22;;;;;;;7.10;3.58;;;12.40;99.90;;;;;;5003794;28;20045;-66
2023/09/15 03:27:47;;;;;;;8.05;3.53;;;12.40;99.90;;;;;;5013221;28;20042;-67
2023/09/15 03:30:13;;;;;;;8.75;3.50;;;12.30;99.90;;;;;;5011907;28;20622;-68
2023/09/15 03:32:39;;;;;;;7.70;3.60;;;12.30;99.90;;;;;;5012986;28;20050;-66
2023/09/15 03:35:06;;;;;;;14.52;4.07;;;12.30;99.90;;;;;;5011582;28;20121;-66
2023/09/15 03:37:32;;;;;;;9.88;3.72;;;12.30;99.90;;;;;;5010798;28;20056;-67
2023/09/15 03:39:59;;;;;;;11.35;3.80;;;12.20;99.90;;;;;;5011990;28;20046;-66
2023/09/15 03:42:25;;;;;;;9.13;3.50;;;12.20;99.90;;;;;;4994989;28;20108;-66
2023/09/15 03:44:50;;;;;;;8.27;3.65;;;12.20;99.90;;;;;;5006577;28;20061;-65
2023/09/15 03:47:16;;;;;;;7.72;3.40;;;12.20;99.90;;;;;;5038872;28;20041;-68
2023/09/15 03:49:42;;;;;;;6.45;3.60;;;12.20;99.90;;;;;;5008660;28;20126;-66
2023/09/15 03:52:08;;;;;;;7.43;3.40;;;12.20;99.90;;;;;;5011954;28;20472;-66
2023/09/15 03:54:34;;;;;;;8.10;3.75;;;12.10;99.90;;;;;;5027407;28;20054;-65
2023/09/15 03:56:59;;;;;;;11.13;3.83;;;12.10;99.90;;;;;;5011774;28;20040;-65
2023/09/15 03:59:25;;;;;;;8.43;3.55;;;12.10;99.90;;;;;;5011923;28;20534;-65
2023/09/15 04:01:51;;;;;;;7.40;3.65;;;12.10;99.90;;;;;;5012033;28;20500;-66
2023/09/15 04:04:17;;;;;;;8.80;3.85;;;12.10;99.90;;;;;;5012553;28;20046;-65
2023/09/15 04:06:43;;;;;;;7.60;3.53;;;12.10;99.90;;;;;;5043155;28;20049;-66
2023/09/15 04:09:15;;;;;;;9.23;3.83;;;12.00;99.90;;;;;;5025690;28;20050;-66
2023/09/15 04:11:41;;;;;;;6.95;3.75;;;12.00;99.90;;;;;;5019779;28;20050;-65
2023/09/15 04:14:07;;;;;;;7.60;3.88;;;12.00;99.90;;;;;;5011789;28;20038;-65
2023/09/15 04:16:34;;;;;;;9.65;3.97;;;12.00;99.90;;;;;;5010258;28;20045;-65
2023/09/15 04:18:59;;;;;;;10.90;4.00;;;12.00;99.90;;;;;;5010447;28;20050;-64
2023/09/15 04:21:25;;;;;;;10.23;4.07;;;11.90;99.90;;;;;;5043391;28;20103;-66
2023/09/15 04:23:51;;;;;;;8.77;3.80;;;12.00;99.90;;;;;;5011591;28;20606;-66
2023/09/15 04:26:17;;;;;;;7.22;4.22;;;11.90;99.90;;;;;;5011752;28;20074;-66
2023/09/15 04:28:42;;;;;;;7.22;4.05;;;11.90;99.90;;;;;;5009998;28;20073;-66
2023/09/15 04:31:08;;;;;;;6.10;4.00;;;11.90;99.90;;;;;;5010582;28;20092;-67
2023/09/15 04:33:34;;;;;;;6.72;3.85;;;11.90;99.90;;;;;;5010277;28;20128;-65
2023/09/15 04:36:00;;;;;;;9.73;4.50;;;11.90;99.90;;;;;;5011817;28;20041;-66
2023/09/15 04:38:25;;;;;;;7.78;4.35;;;11.90;99.90;;;;;;5009587;28;20092;-67
2023/09/15 04:40:52;;;;;;;11.60;4.60;;;11.80;99.90;;;;;;5010256;28;20042;-65
2023/09/15 04:43:18;;;;;;;8.40;3.95;;;11.80;99.90;;;;;;5026857;28;20228;-67
2023/09/15 04:45:44;;;;;;;8.32;4.20;;;11.80;99.90;;;;;;5043388;28;20326;-65
2023/09/15 04:48:10;;;;;;;11.52;4.82;;;11.70;99.90;;;;;;5010457;28;20048;-66
2023/09/15 04:50:39;;;;;;;8.65;4.18;;;11.70;99.90;;;;;;5027552;28;20046;-66
2023/09/15 04:53:07;;;;;;;7.97;4.57;;;11.60;99.90;;;;;;5018440;28;20103;-67
2023/09/15 04:55:35;;;;;;;10.57;5.00;;;11.60;99.90;;;;;;5016724;28;20050;-67
2023/09/15 04:58:01;;;;;;;11.23;5.03;;;11.60;99.90;;;;;;5011314;28;20450;-66
2023/09/15 05:00:28;;;;;;;9.18;4.63;;;11.60;99.90;;;;;;5016710;28;20158;-69
2023/09/15 05:02:56;;;;;;;9.70;5.10;;;11.50;99.90;;;;;;4998212;28;20038;-66
2023/09/15 05:05:21;;;;;;;9.38;5.18;;;11.50;99.90;;;;;;5018192;28;20099;-66
2023/09/15 05:07:47;;;;;;;10.32;4.93;;;11.50;99.90;;;;;;5017060;28;20649;-66
2023/09/15 05:10:13;;;;;;;7.90;5.35;;;11.50;99.90;;;;;;5049182;28;20063;-67
2023/09/15 05:12:39;;;;;;;10.40;5.18;;;11.50;99.90;;;;;;5016375;28;20060;-66
2023/09/15 05:15:06;;;;;;;7.30;5.20;;;11.50;99.90;;;;;;5017934;28;20046;-66
2023/09/15 05:17:33;;;;;;;10.88;5.70;;;11.50;99.90;;;;;;5015870;28;20049;-68
2023/09/15 05:19:58;;;;;;;10.55;5.55;;;11.50;99.90;;;;;;5013206;28;20056;-66
2023/09/15 05:22:24;;;;;;;12.05;5.43;;;11.50;99.90;;;;;;5016760;28;20125;-66
2023/09/15 05:24:50;;;;;;;9.90;5.50;;;11.40;99.90;;;;;;5015013;28;20555;-66
2023/09/15 05:27:15;;;;;;;8.98;5.25;;;11.50;99.90;;;;;;5041391;28;20063;-66
2023/09/15 05:29:41;;;;;;;9.35;5.65;;;11.50;99.90;;;;;;5017006;28;20046;-65
2023/09/15 05:32:07;;;;;;;10.50;6.03;;;11.40;99.90;;;;;;5017393;28;20046;-65
2023/09/15 05:34:32;;;;;;;7.70;5.80;;;11.40;99.90;;;;;;5016123;28;20112;-68
2023/09/15 05:36:58;;;;;;;14.98;6.25;;;11.40;99.90;;;;;;5017909;28;20460;-65
2023/09/15 05:39:24;;;;;;;10.48;6.70;;;11.40;99.90;;;;;;5049835;28;20053;-66
2023/09/15 05:41:50;;;;;;;10.35;5.60;;;11.50;99.90;;;;;;5015124;28;20096;-65
2023/09/15 05:44:18;;;;;;;9.90;5.93;;;11.50;99.90;;;;;;5015223;28;20575;-66
2023/09/15 05:46:44;;;;;;;11.15;5.80;;;11.60;99.90;;;;;;5015208;28;20046;-65
2023/09/15 05:49:10;;;;;;;9.27;5.50;;;11.80;99.90;;;;;;5017833;28;20081;-65
2023/09/15 05:51:35;;;;;;;9.95;5.10;;;12.10;99.90;;;;;;5016108;28;20186;-67
2023/09/15 05:54:02;;;;;;;10.48;5.28;;;12.50;99.90;;;;;;5015707;28;20042;-65
2023/09/15 05:56:29;;;;;;;7.95;4.93;;;13.00;99.90;;;;;;5049012;28;20482;-65
2023/09/15 05:58:55;;;;;;;10.00;5.30;;;13.40;99.90;;;;;;5016677;28;20058;-65
2023/09/15 06:01:21;;;;;;;9.25;5.55;;;13.40;99.90;;;;;;5016474;28;20069;-65
2023/09/15 06:03:48;;;;;;;8.70;5.35;;;13.30;99.90;;;;;;5027907;28;20042;-65
2023/09/15 06:06:18;;;;;;;9.57;4.85;;;13.10;99.90;;;;;;5014062;28;20054;-66
2023/09/15 06:08:44;;;;;;;8.15;4.75;;;13.00;99.90;;;;;;5013839;28;20046;-65
2023/09/15 06:11:10;;;;;;;9.27;5.38;;;12.80;99.90;;;;;;5014457;28;20060;-65
2023/09/15 06:13:37;;;;;;;11.80;5.65;;;12.70;99.90;;;;;;5012606;28;20057;-66
2023/09/15 06:16:04;;;;;;;10.50;5.75;;;12.60;99.90;;;;;;5014136;28;20077;-65
2023/09/15 06:18:33;;;;;;;8.77;5.85;;;12.60;99.90;;;;;;5013542;28;20038;-65
2023/09/15 06:20:59;;;;;;;9.85;6.10;;;12.60;99.90;;;;;;5013713;28;20180;-64
2023/09/15 06:23:25;;;;;;;11.30;6.00;;;12.60;99.90;;;;;;5012958;28;20129;-64
2023/09/15 06:25:53;;;;;;;9.40;5.82;;;12.50;99.90;;;;;;5013422;28;20503;-64
2023/09/15 06:28:19;;;;;;;9.73;6.05;;;12.60;99.90;;;;;;5045623;28;20049;-65
2023/09/15 06:30:45;;;;;;;10.27;5.68;;;12.60;99.90;;;;;;5011800;28;20054;-65
2023/09/15 06:33:11;;;;;;;11.00;5.30;;;12.60;99.90;;;;;;5045496;28;20052;-66
2023/09/15 06:35:37;;;;;;;11.80;6.57;;;12.70;99.90;;;;;;5011076;28;20129;-66
2023/09/15 06:38:04;;;;;;;8.43;5.78;;;12.70;99.90;;;;;;5012219;28;20506;-64
2023/09/15 06:40:31;;;;;;;9.63;5.80;;;12.80;99.90;;;;;;5008558;28;20500;-66
2023/09/15 06:42:56;;;;;;;11.77;5.57;;;12.70;99.90;;;;;;5011029;28;20041;-65
2023/09/15 06:45:22;;;;;;;13.27;8.05;;;12.80;99.90;;;;;;5044338;28;20042;-65
2023/09/15 06:47:48;;;;;;;11.30;5.78;;;12.90;99.90;;;;;;5013026;28;20077;-66
2023/09/15 06:50:14;;;;;;;11.95;5.93;;;12.90;99.90;;;;;;5013685;28;20077;-65
2023/09/15 06:52:40;;;;;;;10.68;6.05;;;13.00;99.90;;;;;;5043508;28;20045;-65
2023/09/15 06:55:06;;;;;;;8.98;5.93;;;13.10;99.90;;;;;;5011950;28;20070;-65
2023/09/15 06:57:31;;;;;;;10.85;5.40;;;13.20;99.90;;;;;;5013597;28;20073;-66
2023/09/15 06:59:57;;;;;;;9.88;5.82;;;13.20;99.90;;;;;;5011328;28;20053;-66
2023/09/15 07:02:23;;;;;;;10.88;5.90;;;13.20;99.90;;;;;;5009971;28;20053;-65
2023/09/15 07:04:48;;;;;;;12.25;5.80;;;13.30;99.90;;;;;;5044945;28;20415;-65
2023/09/15 07:07:14;;;;;;;8.82;5.75;;;13.50;99.90;;;;;;5011827;28;20073;-66
2023/09/15 07:09:40;;;;;;;9.50;5.55;;;13.90;99.90;;;;;;5011675;28;20080;-65
2023/09/15 07:12:06;;;;;;;11.48;6.05;;;14.40;99.90;;;;;;5011388;28;20112;-64
2023/09/15 07:14:32;;;;;;;17.13;6.30;;;14.70;99.90;;;;;;5013100;28;20089;-67
2023/09/15 07:16:57;;;;;;;14.18;5.53;;;14.90;99.90;;;;;;5010066;28;20439;-65
2023/09/15 07:19:24;;;;;;;9.20;5.30;;;14.90;99.90;;;;;;5012330;28;20077;-67
2023/09/15 07:21:50;;;;;;;9.48;5.28;;;14.80;99.90;;;;;;5011201;28;20117;-66
2023/09/15 07:24:15;;;;;;;12.70;5.60;;;14.80;99.90;;;;;;5013132;28;20070;-65
2023/09/15 07:26:41;;;;;;;11.35;4.95;;;14.80;99.90;;;;;;5011292;28;20488;-65
2023/09/15 07:29:07;;;;;;;12.10;5.47;;;14.80;99.90;;;;;;5010859;28;20057;-65
2023/09/15 07:31:36;;;;;;;10.80;5.40;;;14.80;99.90;;;;;;5012507;28;20045;-65
2023/09/15 07:34:03;;;;;;;11.15;5.50;;;14.80;99.90;;;;;;5044403;28;20069;-68
2023/09/15 07:36:29;;;;;;;11.15;5.45;;;14.90;99.90;;;;;;5044331;28;20191;-66
2023/09/15 07:38:55;;;;;;;11.32;5.10;;;15.20;99.90;;;;;;5012252;28;20163;-66
2023/09/15 07:41:20;;;;;;;10.68;5.63;;;15.40;99.90;;;;;;5012424;28;20189;-65
2023/09/15 07:43:46;;;;;;;10.32;5.32;;;15.60;99.90;;;;;;5012091;28;20052;-66
2023/09/15 07:46:14;;;;;;;9.07;5.38;;;16.30;99.90;;;;;;4990804;28;20820;-66
2023/09/15 07:48:42;;;;;;;11.23;4.80;;;17.20;99.90;;;;;;5012766;28;20116;-66
2023/09/15 07:51:08;;;;;;;13.00;5.13;;;18.20;99.90;;;;;;5044316;28;20046;-66
2023/09/15 07:53:34;;;;;;;9.50;5.32;;;19.10;99.90;;;;;;5043756;28;20522;-66
2023/09/15 07:56:00;;;;;;;6.78;4.80;;;19.90;99.90;;;;;;5011876;28;20038;-67
2023/09/15 07:58:25;;;;;;;7.07;4.32;;;20.60;99.90;;;;;;5010794;28;20042;-67
2023/09/15 08:00:53;;;;;;;10.80;4.53;;;21.30;99.90;;;;;;5012457;28;20056;-67
2023/09/15 08:03:19;;;;;;;10.23;4.68;;;22.10;99.90;;;;;;5010446;28;20052;-67
2023/09/15 08:05:44;;;;;;;10.00;3.83;;;22.80;99.90;;;;;;5012598;28;20046;-66
2023/09/15 08:08:10;;;;;;;9.70;4.55;;;23.40;99.90;;;;;;5026085;28;20041;-66
2023/09/15 08:10:36;;;;;;;10.07;4.35;;;23.70;99.20;;;;;;5010696;28;20041;-65
2023/09/15 08:13:02;;;;;;;7.85;4.10;;;24.20;99.20;;;;;;5010657;28;20084;-64
2023/09/15 08:15:27;;;;;;;8.35;4.30;;;24.50;97.40;;;;;;5012212;28;20116;-65
2023/09/15 08:17:53;;;;;;;10.32;4.25;;;24.80;97.60;;;;;;5010698;28;20053;-66
2023/09/15 08:20:19;;;;;;;8.82;4.10;;;25.10;97.00;;;;;;5011703;28;20052;-66
2023/09/15 08:22:45;;;;;;;8.40;3.78;;;25.50;97.20;;;;;;5011957;28;20056;-66
2023/09/15 08:25:11;;;;;;;8.73;3.90;;;25.70;96.90;;;;;;5010224;28;20054;-65
2023/09/15 08:27:37;;;;;;;8.80;4.07;;;25.80;96.40;;;;;;5010484;28;20116;-67
2023/09/15 08:30:04;;;;;;;7.45;3.70;;;25.80;94.80;;;;;;5010593;28;20041;-68
2023/09/15 08:32:31;;;;;;;9.48;4.15;;;26.10;95.70;;;;;;5012027;28;20104;-66
2023/09/15 08:34:58;;;;;;;7.65;3.85;;;26.20;95.40;;;;;;5043690;28;20054;-66
2023/09/15 08:37:24;;;;;;;6.78;4.07;;;26.30;95.50;;;;;;5011608;28;20050;-67
2023/09/15 08:39:50;;;;;;;9.45;3.83;;;26.30;94.90;;;;;;5011369;28;20135;-67
2023/09/15 08:42:36;;;;;;;9.25;4.45;;;26.30;95.00;;;;;;5041247;28;20054;-67
2023/09/15 08:45:05;;;;;;;7.72;4.00;;;26.10;94.30;;;;;;5009035;28;20061;-69
2023/09/15 08:47:34;;;;;;;11.07;4.20;;;26.20;95.10;;;;;;5010459;28;20046;-67
2023/09/15 08:50:03;;;;;;;11.63;3.60;;;26.30;94.70;;;;;;5011247;28;20433;-70
2023/09/15 08:52:30;;;;;;;9.88;3.40;;;26.40;94.60;;;;;;5041823;28;20058;-66
2023/09/15 08:54:56;;;;;;;11.40;3.70;;;26.60;94.60;;;;;;5011060;28;20083;-67
2023/09/15 08:57:24;;;;;;;10.63;3.55;;;26.50;94.60;;;;;;5042930;28;20030;-66
2023/09/15 08:59:51;;;;;;;8.75;3.70;;;26.80;94.20;;;;;;5012248;28;20521;-66
2023/09/15 09:02:17;;;;;;;9.30;3.20;;;26.80;93.90;;;;;;5010716;28;20151;-66
2023/09/15 09:04:42;;;;;;;8.23;2.72;;;26.90;93.30;;;;;;5011641;28;20085;-66
2023/09/15 09:07:09;;;;;;;8.23;2.85;;;27.10;93.70;;;;;;5010147;28;20044;-66
2023/09/15 09:09:36;;;;;;;6.65;3.00;;;27.30;93.60;;;;;;5011635;28;20128;-66
2023/09/15 09:12:03;;;;;;;8.45;2.70;;;27.50;93.40;;;;;;5010485;28;20189;-68
2023/09/15 09:14:28;;;;;;;5.93;2.65;;;27.60;93.30;;;;;;5043164;28;20149;-66
2023/09/15 09:16:55;;;;;;;6.45;2.83;;;27.40;93.30;;;;;;5011022;28;20049;-67
2023/09/15 09:19:21;;;;;;;10.05;3.08;;;26.90;93.10;;;;;;5009774;28;20046;-67
2023/09/15 09:21:47;;;;;;;7.90;3.05;;;26.30;93.30;;;;;;5011193;28;20092;-68
2023/09/15 09:24:14;;;;;;;7.07;2.70;;;25.40;93.60;;;;;;5010923;28;20118;-69
2023/09/15 09:26:40;;;;;;;9.25;3.20;;;24.90;94.10;;;;;;5010277;28;20443;-68
2023/09/15 09:29:05;;;;;;;8.40;3.03;;;24.50;94.40;;;;;;5011363;28;20049;-67
2023/09/15 09:31:31;;;;;;;7.30;3.05;;;24.10;94.60;;;;;;5022306;28;20046;-67
2023/09/15 09:34:01;;;;;;;8.13;2.63;;;23.50;94.80;;;;;;5037946;28;20042;-69
2023/09/15 09:36:28;;;;;;;6.95;2.92;;;23.10;95.60;;;;;;5003861;28;20092;-70
2023/09/15 09:38:55;;;;;;;5.07;2.50;;;23.00;95.80;;;;;;5029465;28;20046;-68
2023/09/15 09:41:22;;;;;;;6.40;2.83;;;23.00;96.10;;;;;;5016682;28;20388;-68
2023/09/15 09:43:51;;;;;;;8.15;2.70;;;22.90;95.50;;;;;;5011966;28;20042;-67
2023/09/15 09:46:21;;;;;;;8.27;2.75;;;22.80;95.60;;;;;;4994874;28;20050;-68
2023/09/15 09:48:49;;;;;;;12.02;3.42;;;22.50;95.90;;;;;;5012708;28;20073;-65
2023/09/15 09:51:16;;;;;;;6.70;2.83;;;22.40;96.00;;;;;;5011710;28;20053;-67
2023/09/15 09:53:42;;;;;;;7.38;3.00;;;22.30;95.70;;;;;;5013410;28;20129;-69
2023/09/15 09:56:08;;;;;;;6.85;3.35;;;22.20;96.10;;;;;;5011822;28;20124;-68
2023/09/15 09:58:40;;;;;;;8.18;2.92;;;22.10;96.10;;;;;;4993825;28;20046;-68
2023/09/15 10:01:06;;;;;;;6.45;3.30;;;22.00;96.40;;;;;;5036597;28;20436;-65
2023/09/15 10:03:35;;;;;;;9.60;3.58;;;21.90;96.50;;;;;;5009969;28;20056;-67
2023/09/15 10:06:03;;;;;;;6.78;3.45;;;21.80;96.40;;;;;;5007208;28;20045;-67
2023/09/15 10:08:30;;;;;;;7.90;3.55;;;21.80;96.60;;;;;;5003077;28;20073;-67
2023/09/15 10:10:56;;;;;;;7.00;3.42;;;21.60;96.00;;;;;;4995835;28;20042;-67
2023/09/15 10:13:23;;;;;;;7.25;3.38;;;21.50;96.50;;;;;;5011492;28;20153;-67
2023/09/15 10:15:51;;;;;;;9.50;3.75;;;21.50;96.60;;;;;;5012507;28;20080;-66
2023/09/15 10:18:19;;;;;;;9.38;4.05;;;21.50;96.70;;;;;;5012922;28;20038;-69
2023/09/15 10:20:52;;;;;;;9.70;4.05;;;21.60;96.20;;;;;;5013909;28;20056;-67
2023/09/15 10:23:18;;;;;;;6.82;3.80;;;21.60;96.10;;;;;;5012739;28;20049;-67
2023/09/15 10:25:52;;;;;;;10.45;4.78;;;21.70;96.40;;;;;;5045979;28;20111;-67
2023/09/15 10:28:19;;;;;;;9.10;4.43;;;21.70;96.30;;;;;;5012441;28;20503;-68
2023/09/15 10:30:45;;;;;;;7.30;4.13;;;21.70;96.30;;;;;;5012378;28;20492;-67
2023/09/15 10:33:12;;;;;;;7.47;3.72;;;21.70;96.20;;;;;;5013418;28;20116;-67
2023/09/15 10:35:45;;;;;;;8.43;4.65;;;21.80;96.10;;;;;;5013396;28;20060;-67
2023/09/15 10:38:11;;;;;;;12.20;4.60;;;21.90;96.20;;;;;;5012925;28;20100;-67
2023/09/15 10:40:47;;;;;;;8.63;4.00;;;21.90;96.30;;;;;;5012512;28;20042;-67
2023/09/15 10:43:14;;;;;;;7.95;3.97;;;21.90;96.40;;;;;;5013116;28;20105;-66
2023/09/15 10:45:40;;;;;;;8.27;3.58;;;21.80;96.70;;;;;;5013400;28;20089;-69
2023/09/15 10:48:06;;;;;;;8.13;3.97;;;21.90;96.50;;;;;;5010989;28;20050;-66
2023/09/15 10:50:33;;;;;;;7.25;3.22;;;22.00;96.30;;;;;;5028214;28;20042;-67
2023/09/15 10:53:09;;;;;;;7.57;3.33;;;21.90;96.50;;;;;;5013258;28;20484;-66
2023/09/15 10:55:37;;;;;;;8.18;3.25;;;21.80;96.60;;;;;;5000975;28;20049;-65
2023/09/15 10:58:04;;;;;;;7.43;3.22;;;21.70;96.60;;;;;;5012461;28;20053;-66
2023/09/15 11:00:31;;;;;;;7.45;3.33;;;21.80;96.60;;;;;;5027352;28;20046;-66
2023/09/15 11:02:57;;;;;;;6.60;2.97;;;21.80;96.50;;;;;;5028856;28;20054;-65
2023/09/15 11:05:27;;;;;;;7.32;3.22;;;21.80;96.70;;;;;;5012672;28;20042;-66
2023/09/15 11:07:57;;;;;;;4.93;2.60;;;21.80;96.40;;;;;;5012165;28;20039;-65
2023/09/15 11:10:31;;;;;;;8.30;3.28;;;21.90;96.60;;;;;;5012778;28;20076;-67
2023/09/15 11:13:02;;;;;;;8.00;3.42;;;22.00;96.50;;;;;;5013081;28;20049;-66
2023/09/15 11:15:28;;;;;;;6.05;2.85;;;22.00;96.30;;;;;;5011103;28;20042;-66
2023/09/15 11:17:54;;;;;;;4.13;2.38;;;21.90;96.40;;;;;;5012289;28;20153;-64
2023/09/15 11:20:21;;;;;;;4.85;2.22;;;22.00;96.50;;;;;;5013074;28;20404;-65
2023/09/15 11:22:47;;;;;;;6.15;2.58;;;22.10;96.30;;;;;;5012288;28;20097;-65
2023/09/15 11:25:15;;;;;;;6.00;2.60;;;22.20;96.10;;;;;;5011523;28;20066;-66
2023/09/15 11:27:41;;;;;;;5.07;2.40;;;22.20;95.90;;;;;;4994629;28;20491;-66
2023/09/15 11:30:07;;;;;;;5.10;2.10;;;22.30;95.80;;;;;;5044924;28;20408;-66
2023/09/15 11:32:34;;;;;;;4.10;2.60;;;22.30;95.90;;;;;;5011046;28;20045;-66
2023/09/15 11:35:05;;;;;;;6.53;2.75;;;22.30;96.00;;;;;;5012750;28;20061;-66
2023/09/15 11:37:31;;;;;;;5.43;2.33;;;22.30;96.10;;;;;;5011699;28;20200;-66
2023/09/15 11:39:57;;;;;;;5.95;2.50;;;22.20;96.30;;;;;;5007948;28;20042;-66
2023/09/15 11:42:24;;;;;;;6.68;2.70;;;22.20;96.40;;;;;;5043756;28;20045;-67
2023/09/15 11:44:50;;;;;;;9.88;3.30;;;22.20;96.50;;;;;;5010851;28;20058;-68
2023/09/15 11:47:17;;;;;;;10.50;4.50;;;22.20;96.80;;;;;;5010881;28;20096;-65
2023/09/15 11:49:43;;;;;;;5.43;3.05;;;22.20;96.60;;;;;;5010710;28;20133;-68
2023/09/15 11:52:11;;;;;;;7.65;2.92;;;22.10;96.70;;;;;;5027915;28;20368;-68
2023/09/15 11:54:37;;;;;;;12.15;3.33;;;22.10;96.90;;;;;;5011747;28;20045;-66
2023/09/15 11:57:03;;;;;;;8.85;3.25;;;22.10;96.90;;;;;;5011567;28;20364;-65
2023/09/15 11:59:29;;;;;;;6.60;2.65;;;22.00;96.90;;;;;;5010900;28;20050;-67
2023/09/15 12:01:58;;;;;;;9.07;2.95;;;22.00;96.90;;;;;;5010768;28;20046;-66
2023/09/15 12:04:27;;;;;;;5.97;3.15;;;22.00;97.30;;;;;;5044449;28;20045;-66
2023/09/15 12:06:54;;;;;;;7.43;2.75;;;22.00;97.10;;;;;;5010363;28;20046;-66
2023/09/15 12:09:22;;;;;;;7.65;3.08;;;22.00;97.10;;;;;;5026202;28;20064;-65
2023/09/15 12:11:48;;;;;;;11.52;5.70;;;22.00;97.10;;;;;;5010270;28;20128;-66
2023/09/15 12:14:15;;;;;;;19.33;11.80;;;21.90;97.30;;;;;;4998906;28;20054;-66
2023/09/15 12:16:45;;;;;;;11.07;5.00;;;22.00;97.90;;;;;;5010602;28;20045;-66
2023/09/15 12:19:12;;;;;;;8.60;4.80;;;21.80;97.40;;;;;;5011383;28;20406;-66
2023/09/15 12:21:38;;;;;;;8.68;2.75;;;21.90;97.40;;;;;;5010426;28;20058;-67
2023/09/15 12:24:11;;;;;;;8.18;3.00;;;21.90;97.30;;;;;;5012411;28;20081;-66
2023/09/15 12:26:39;;;;;;;7.28;2.60;;;22.00;97.30;;;;;;4996864;28;20428;-69
2023/09/15 12:29:05;;;;;;;8.27;3.05;;;22.00;97.40;;;;;;5011912;28;20152;-66
2023/09/15 12:31:42;;;;;;;7.82;2.67;;;22.10;97.30;;;;;;5009733;28;20136;-66
2023/09/15 12:34:08;;;;;;;7.05;2.70;;;22.10;97.40;;;;;;5044067;28;20452;-66
2023/09/15 12:36:33;;;;;;;5.15;2.50;;;22.20;97.20;;;;;;5011748;28;20042;-66
2023/09/15 12:38:59;;;;;;;5.18;2.50;;;22.20;97.20;;;;;;5011284;28;20046;-67
2023/09/15 12:41:25;;;;;;;7.15;2.65;;;22.20;97.20;;;;;;5009537;28;20096;-66
2023/09/15 12:43:51;;;;;;;7.15;2.97;;;22.30;97.30;;;;;;5009843;28;20049;-66